createdAt,value
2022-08-22T00:00:14.324Z,67.52
2022-08-22T00:02:44.021Z,55.50
2022-08-22T00:02:47.469Z,53.35
2022-08-22T00:03:02.491Z,59.64
2022-08-22T00:03:11.261Z,56.97
2022-08-22T00:03:17.506Z,67.33
2022-08-22T00:05:40.753Z,69.81
2022-08-22T00:08:18.858Z,70.45
2022-08-22T00:10:57.909Z,71.48
2022-08-22T00:13:35.674Z,71.42
2022-08-22T00:16:12.991Z,71.84
2022-08-22T00:18:47.783Z,71.74
2022-08-22T00:21:22.224Z,71.94
2022-08-22T00:24:00.478Z,71.56
2022-08-22T00:29:21.680Z,71.61
2022-08-22T00:32:05.581Z,71.45
2022-08-22T00:34:44.938Z,71.84
2022-08-22T00:37:41.130Z,71.96
2022-08-22T00:40:26.658Z,71.54
2022-08-22T00:43:04.238Z,71.31
2022-08-22T00:46:07.185Z,71.37
2022-08-22T00:49:06.350Z,71.48
2022-08-22T00:52:00.535Z,72.24
2022-08-22T00:54:45.241Z,71.98
2022-08-22T00:57:30.080Z,72.14
2022-08-22T01:00:09.250Z,71.31
2022-08-22T01:02:52.408Z,71.42
2022-08-22T01:05:30.178Z,71.59
2022-08-22T01:08:09.564Z,71.67
2022-08-22T01:10:53.321Z,71.71
2022-08-22T01:13:31.366Z,71.76
2022-08-22T01:16:20.793Z,71.31
2022-08-22T01:19:24.735Z,71.70
2022-08-22T01:22:12.479Z,71.84
2022-08-22T01:25:18.373Z,71.38
2022-08-22T01:28:15.346Z,71.62
2022-08-22T01:31:16.661Z,71.42
2022-08-22T01:34:16.930Z,71.25
2022-08-22T01:36:55.526Z,72.23
2022-08-22T01:39:43.424Z,71.88
2022-08-22T01:42:32.990Z,72.03
2022-08-22T01:45:24.027Z,72.78
2022-08-22T01:47:56.982Z,72.83
2022-08-22T01:50:39.585Z,72.40
2022-08-22T01:53:15.309Z,72.07
2022-08-22T01:56:36.018Z,72.40
2022-08-22T01:59:10.891Z,72.76
2022-08-22T02:02:01.147Z,73.26
2022-08-22T02:04:42.736Z,73.30
2022-08-22T02:07:19.540Z,73.82
2022-08-22T02:10:07.649Z,74.15
2022-08-22T02:13:04.206Z,74.22
2022-08-22T02:15:46.954Z,73.81
2022-08-22T02:18:45.945Z,74.47
2022-08-22T02:21:22.480Z,74.91
2022-08-22T02:24:00.270Z,74.56
2022-08-22T02:26:52.810Z,73.84
2022-08-22T02:29:29.573Z,74.91
2022-08-22T02:32:20.191Z,74.73
2022-08-22T02:35:16.973Z,74.40
2022-08-22T02:37:57.699Z,74.74
2022-08-22T02:40:39.090Z,75.23
2022-08-22T02:43:14.877Z,74.85
2022-08-22T02:46:03.463Z,75.04
2022-08-22T02:48:42.052Z,74.88
2022-08-22T02:51:25.676Z,75.32
2022-08-22T02:54:11.454Z,75.84
2022-08-22T02:56:54.014Z,75.75
2022-08-22T02:59:26.602Z,75.47
2022-08-22T03:01:55.682Z,75.89
2022-08-22T03:04:27.101Z,76.09
2022-08-22T03:07:07.951Z,76.41
2022-08-22T03:09:40.779Z,76.15
2022-08-22T03:12:38.287Z,75.86
2022-08-22T03:15:13.220Z,75.66
2022-08-22T03:17:51.073Z,75.58
2022-08-22T03:20:45.595Z,75.77
2022-08-22T03:24:04.809Z,76.29
2022-08-22T03:27:08.566Z,76.14
2022-08-22T03:29:37.434Z,75.59
2022-08-22T03:32:19.163Z,76.39
2022-08-22T03:34:57.893Z,76.63
2022-08-22T03:37:35.713Z,76.63
2022-08-22T03:40:53.977Z,77.15
2022-08-22T03:43:45.161Z,76.93
2022-08-22T03:46:54.994Z,76.28
2022-08-22T03:49:27.646Z,77.33
2022-08-22T03:52:18.687Z,77.86
2022-08-22T03:54:57.669Z,79.24
2022-08-22T03:57:55.371Z,79.58
2022-08-22T04:00:21.897Z,79.59
2022-08-22T04:02:58.274Z,79.82
2022-08-22T04:06:11.602Z,79.99
2022-08-22T04:08:49.040Z,79.50
2022-08-22T04:11:52.561Z,79.69
2022-08-22T04:14:35.705Z,79.45
2022-08-22T04:17:29.852Z,79.53
2022-08-22T04:20:33.986Z,79.72
2022-08-22T04:23:33.498Z,79.62
2022-08-22T04:26:11.951Z,79.93
2022-08-22T04:29:05.674Z,80.07
2022-08-22T04:31:41.422Z,79.61
2022-08-22T04:34:14.112Z,79.07
2022-08-22T04:36:50.673Z,78.53
2022-08-22T04:39:32.450Z,78.52
2022-08-22T04:42:31.247Z,78.59
2022-08-22T04:45:17.053Z,78.28
2022-08-22T04:47:54.535Z,78.64
2022-08-22T04:50:23.876Z,78.63
2022-08-22T04:53:04.615Z,78.74
2022-08-22T04:55:39.749Z,79.24
2022-08-22T04:58:15.294Z,79.11
2022-08-22T05:00:54.481Z,79.11
2022-08-22T05:03:24.530Z,78.86
2022-08-22T05:05:53.428Z,78.77
2022-08-22T05:08:25.779Z,78.20
2022-08-22T05:10:54.546Z,78.72
2022-08-22T05:13:30.669Z,78.94
2022-08-22T05:16:03.205Z,79.27
2022-08-22T05:18:36.123Z,79.21
2022-08-22T05:21:07.518Z,78.54
2022-08-22T05:23:49.346Z,78.42
2022-08-22T05:26:17.740Z,78.96
2022-08-22T05:28:52.903Z,78.54
2022-08-22T05:31:29.448Z,79.01
2022-08-22T05:34:11.556Z,78.88
2022-08-22T05:37:08.414Z,78.54
2022-08-22T05:39:38.495Z,77.82
2022-08-22T05:42:05.702Z,78.28
2022-08-22T05:44:37.565Z,78.38
2022-08-22T05:47:10.245Z,79.22
2022-08-22T05:49:56.334Z,80.53
2022-08-22T05:52:50.714Z,80.10
2022-08-22T05:55:46.585Z,79.99
2022-08-22T05:58:13.948Z,79.29
2022-08-22T06:00:45.106Z,78.64
2022-08-22T06:03:47.622Z,78.43
2022-08-22T06:06:18.921Z,77.71
2022-08-22T06:09:03.117Z,76.91
2022-08-22T06:11:51.944Z,76.28
2022-08-22T06:14:30.372Z,75.57
2022-08-22T06:17:10.744Z,75.69
2022-08-22T06:19:48.686Z,76.07
2022-08-22T06:22:23.257Z,76.06
2022-08-22T06:24:51.858Z,76.62
2022-08-22T06:27:23.029Z,76.79
2022-08-22T06:30:03.334Z,76.78
2022-08-22T06:32:59.944Z,77.05
2022-08-22T06:35:51.373Z,77.18
2022-08-22T06:38:20.321Z,77.97
2022-08-22T06:40:48.259Z,78.19
2022-08-22T06:43:15.652Z,78.65
2022-08-22T06:45:42.625Z,79.21
2022-08-22T06:48:09.417Z,80.04
2022-08-22T06:50:49.870Z,80.77
2022-08-22T06:53:27.626Z,80.70
2022-08-22T06:55:57.434Z,79.62
2022-08-22T06:58:32.323Z,79.93
2022-08-22T07:01:12.000Z,79.98
2022-08-22T07:03:46.652Z,80.14
2022-08-22T07:06:19.412Z,79.74
2022-08-22T07:08:52.437Z,79.51
2022-08-22T07:11:27.976Z,78.92
2022-08-22T07:14:02.382Z,77.83
2022-08-22T07:16:42.934Z,78.36
2022-08-22T07:19:21.882Z,78.43
2022-08-22T07:21:48.779Z,78.36
2022-08-22T07:24:20.566Z,78.17
2022-08-22T07:27:08.985Z,77.67
2022-08-22T07:29:44.174Z,77.08
2022-08-22T07:32:21.010Z,76.93
2022-08-22T07:35:21.654Z,76.21
2022-08-22T07:38:08.401Z,75.78
2022-08-22T07:40:54.780Z,76.87
2022-08-22T07:43:48.821Z,74.73
2022-08-22T07:46:37.074Z,75.17
2022-08-22T07:49:14.498Z,73.42
2022-08-22T07:51:45.605Z,71.93
2022-08-22T07:54:15.689Z,72.12
2022-08-22T07:56:48.935Z,72.60
2022-08-22T07:59:18.958Z,71.70
2022-08-22T08:01:54.683Z,71.72
2022-08-22T08:04:26.307Z,72.10
2022-08-22T08:06:57.388Z,72.10
2022-08-22T08:09:27.829Z,73.08
2022-08-22T08:11:54.610Z,73.03
2022-08-22T08:14:23.518Z,73.33
2022-08-22T08:17:02.924Z,73.28
2022-08-22T08:19:31.491Z,73.43
2022-08-22T08:21:58.743Z,72.36
2022-08-22T08:24:44.857Z,71.37
2022-08-22T08:27:35.139Z,70.65
2022-08-22T08:30:15.524Z,70.03
2022-08-22T08:32:47.106Z,69.67
2022-08-22T08:35:23.228Z,68.18
2022-08-22T08:38:03.301Z,67.66
2022-08-22T08:40:32.848Z,66.66
2022-08-22T08:43:29.590Z,68.65
2022-08-22T08:46:08.107Z,65.05
2022-08-22T08:48:43.934Z,63.36
2022-08-22T08:51:31.350Z,64.40
2022-08-22T08:54:24.029Z,63.63
2022-08-22T08:57:09.214Z,63.48
2022-08-22T09:00:00.772Z,62.65
2022-08-22T09:02:56.135Z,63.47
2022-08-22T09:05:48.055Z,61.62
2022-08-22T09:08:30.328Z,61.63
2022-08-22T09:11:00.341Z,61.49
2022-08-22T09:13:47.487Z,61.92
2022-08-22T09:16:51.922Z,61.98
2022-08-22T09:19:21.731Z,62.17
2022-08-22T09:22:14.162Z,62.62
2022-08-22T09:24:59.398Z,62.61
2022-08-22T09:27:45.842Z,62.64
2022-08-22T09:30:17.153Z,62.24
2022-08-22T09:33:22.418Z,62.63
2022-08-22T09:36:18.533Z,62.84
2022-08-22T09:39:02.710Z,63.19
2022-08-22T09:41:51.762Z,62.68
2022-08-22T09:44:39.565Z,62.74
2022-08-22T09:47:32.782Z,61.37
2022-08-22T09:50:17.033Z,60.64
2022-08-22T09:53:03.038Z,58.86
2022-08-22T09:55:47.971Z,58.91
2022-08-22T09:58:42.611Z,58.93
2022-08-22T10:01:19.029Z,57.98
2022-08-22T10:03:45.568Z,57.68
2022-08-22T10:06:20.661Z,55.85
2022-08-22T10:09:10.630Z,56.34
2022-08-22T10:11:45.371Z,55.35
2022-08-22T10:14:25.167Z,55.69
2022-08-22T10:17:07.300Z,55.47
2022-08-22T10:19:41.872Z,54.62
2022-08-22T10:22:35.473Z,54.26
2022-08-22T10:25:24.578Z,53.11
2022-08-22T10:28:10.655Z,52.22
2022-08-22T10:31:04.952Z,53.29
2022-08-22T10:33:39.805Z,53.47
2022-08-22T10:36:35.100Z,53.21
2022-08-22T10:39:11.504Z,53.56
2022-08-22T10:42:04.273Z,53.39
2022-08-22T10:44:42.133Z,52.35
2022-08-22T10:47:15.674Z,51.95
2022-08-22T10:49:56.742Z,53.28
2022-08-22T10:52:45.026Z,54.26
2022-08-22T10:55:25.083Z,54.12
2022-08-22T10:58:11.054Z,53.70
2022-08-22T11:00:46.601Z,52.40
2022-08-22T11:03:58.546Z,51.55
2022-08-22T11:06:31.149Z,50.48
2022-08-22T11:09:23.650Z,50.59
2022-08-22T11:12:21.729Z,49.26
2022-08-22T11:15:31.089Z,49.19
2022-08-22T11:18:28.358Z,47.91
2022-08-22T11:21:20.183Z,47.83
2022-08-22T11:24:34.843Z,47.96
2022-08-22T11:27:14.574Z,46.74
2022-08-22T11:29:56.273Z,47.63
2022-08-22T11:32:37.622Z,47.68
2022-08-22T11:35:16.159Z,47.13
2022-08-22T11:38:12.079Z,46.25
2022-08-22T11:40:48.459Z,46.42
2022-08-22T11:43:34.807Z,46.69
2022-08-22T11:46:15.682Z,48.33
2022-08-22T11:48:56.026Z,47.84
2022-08-22T11:51:55.430Z,45.66
2022-08-22T11:54:49.070Z,44.80
2022-08-22T11:57:31.759Z,45.08
2022-08-22T12:00:20.884Z,46.26
2022-08-22T12:03:12.924Z,45.75
2022-08-22T12:05:46.718Z,45.35
2022-08-22T12:08:25.117Z,44.18
2022-08-22T12:11:17.899Z,41.75
2022-08-22T12:14:06.290Z,41.68
2022-08-22T12:17:05.892Z,41.23
2022-08-22T12:20:16.730Z,42.38
2022-08-22T12:22:58.949Z,43.23
2022-08-22T12:25:31.332Z,44.08
2022-08-22T12:28:08.690Z,44.34
2022-08-22T12:30:41.519Z,45.63
2022-08-22T12:33:13.109Z,44.87
2022-08-22T12:35:58.226Z,45.07
2022-08-22T12:38:45.868Z,45.94
2022-08-22T12:41:28.367Z,46.81
2022-08-22T12:44:29.562Z,45.00
2022-08-22T12:47:20.036Z,44.75
2022-08-22T12:50:05.102Z,43.38
2022-08-22T12:53:09.548Z,45.12
2022-08-22T12:55:55.644Z,45.58
2022-08-22T12:58:39.982Z,44.79
2022-08-22T13:01:09.148Z,45.78
2022-08-22T13:03:43.450Z,45.96
2022-08-22T13:06:48.785Z,44.72
2022-08-22T13:09:28.834Z,43.99
2022-08-22T13:12:15.692Z,43.73
2022-08-22T13:14:52.169Z,43.70
2022-08-22T13:17:24.550Z,43.10
2022-08-22T13:20:03.918Z,42.46
2022-08-22T13:22:35.325Z,43.30
2022-08-22T13:25:14.560Z,43.17
2022-08-22T13:27:52.961Z,42.95
2022-08-22T13:30:34.120Z,42.07
2022-08-22T13:33:04.100Z,42.16
2022-08-22T13:35:35.359Z,42.35
2022-08-22T13:38:12.229Z,41.79
2022-08-22T13:40:45.698Z,42.28
2022-08-22T13:43:18.748Z,43.30
2022-08-22T13:45:54.604Z,42.91
2022-08-22T13:48:28.336Z,41.93
2022-08-22T13:51:23.290Z,42.95
2022-08-22T13:54:03.703Z,42.40
2022-08-22T13:56:54.487Z,43.21
2022-08-22T13:59:59.513Z,43.91
2022-08-22T14:02:43.419Z,43.97
2022-08-22T14:05:16.779Z,42.79
2022-08-22T14:08:16.284Z,42.15
2022-08-22T14:11:27.533Z,42.70
2022-08-22T14:14:02.215Z,43.16
2022-08-22T14:16:36.219Z,43.09
2022-08-22T14:19:08.510Z,43.02
2022-08-22T14:21:43.031Z,44.09
2022-08-22T14:24:26.894Z,44.81
2022-08-22T14:27:06.534Z,45.06
2022-08-22T14:29:45.535Z,46.37
2022-08-22T14:32:23.364Z,46.34
2022-08-22T14:35:40.986Z,46.15
2022-08-22T14:38:20.124Z,45.98
2022-08-22T14:40:52.034Z,47.02
2022-08-22T14:43:58.678Z,47.47
2022-08-22T14:46:44.678Z,48.29
2022-08-22T14:49:26.735Z,47.87
2022-08-22T14:52:19.533Z,48.78
2022-08-22T14:54:46.806Z,48.85
2022-08-22T14:57:20.844Z,49.88
2022-08-22T14:59:51.954Z,49.71
2022-08-22T15:02:32.936Z,50.13
2022-08-22T15:05:13.657Z,50.65
2022-08-22T15:07:40.469Z,50.79
2022-08-22T15:10:21.713Z,51.62
2022-08-22T15:12:53.836Z,52.07
2022-08-22T15:15:54.963Z,52.54
2022-08-22T15:18:28.531Z,54.11
2022-08-22T15:21:12.681Z,54.94
2022-08-22T15:23:46.754Z,56.92
2022-08-22T15:26:38.403Z,57.15
2022-08-22T15:29:16.462Z,58.28
2022-08-22T15:31:46.583Z,59.63
2022-08-22T15:34:45.887Z,62.35
2022-08-22T15:37:18.316Z,63.59
2022-08-22T15:40:05.902Z,64.57
2022-08-22T15:42:43.425Z,65.68
2022-08-22T15:45:20.344Z,66.00
2022-08-22T15:47:52.418Z,66.93
2022-08-22T15:50:55.279Z,67.90
2022-08-22T15:53:26.579Z,68.19
2022-08-22T15:56:13.298Z,71.02
2022-08-22T15:58:49.502Z,69.56
2022-08-22T16:01:22.207Z,69.17
2022-08-22T16:04:00.318Z,70.83
2022-08-22T16:06:51.132Z,71.59
2022-08-22T16:09:43.571Z,71.39
2022-08-22T16:12:25.982Z,71.36
2022-08-22T16:14:52.967Z,71.13
2022-08-22T16:17:28.743Z,70.89
2022-08-22T16:20:17.496Z,70.87
2022-08-22T16:22:56.397Z,71.43
2022-08-22T16:25:45.013Z,71.06
2022-08-22T16:28:56.771Z,71.81
2022-08-22T16:31:33.990Z,72.06
2022-08-22T16:34:16.172Z,71.76
2022-08-22T16:36:48.822Z,70.87
2022-08-22T16:39:21.327Z,71.49
2022-08-22T16:41:51.834Z,72.05
2022-08-22T16:44:37.014Z,75.71
2022-08-22T16:47:13.982Z,77.85
2022-08-22T16:49:49.502Z,77.74
2022-08-22T16:52:25.201Z,76.59
2022-08-22T16:54:58.872Z,77.23
2022-08-22T16:57:31.271Z,77.08
2022-08-22T16:59:57.762Z,77.85
2022-08-22T17:02:55.105Z,77.90
2022-08-22T17:05:46.445Z,78.62
2022-08-22T17:08:37.128Z,78.41
2022-08-22T17:11:06.652Z,78.78
2022-08-22T17:13:42.813Z,79.24
2022-08-22T17:16:24.900Z,80.89
2022-08-22T17:19:03.072Z,80.04
2022-08-22T17:21:38.489Z,80.17
2022-08-22T17:24:34.227Z,79.57
2022-08-22T17:27:27.058Z,80.25
2022-08-22T17:30:07.107Z,81.21
2022-08-22T17:32:34.806Z,82.39
2022-08-22T17:35:16.269Z,81.08
2022-08-22T17:38:10.937Z,81.84
2022-08-22T17:40:41.739Z,83.11
2022-08-22T17:43:20.204Z,85.58
2022-08-22T17:46:13.457Z,84.10
2022-08-22T17:49:11.207Z,84.24
2022-08-22T17:51:59.230Z,84.93
2022-08-22T17:54:29.859Z,85.98
2022-08-22T17:57:06.467Z,85.84
2022-08-22T18:00:02.282Z,84.41
2022-08-22T18:02:40.919Z,83.52
2022-08-22T18:05:12.928Z,83.34
2022-08-22T18:07:49.871Z,83.08
2022-08-22T18:10:22.279Z,83.10
2022-08-22T18:12:56.177Z,83.54
2022-08-22T18:15:29.556Z,84.23
2022-08-22T18:18:12.993Z,83.38
2022-08-22T18:21:04.077Z,82.90
2022-08-22T18:23:41.098Z,83.60
2022-08-22T18:26:16.058Z,83.61
2022-08-22T18:28:52.913Z,83.63
2022-08-22T18:31:38.490Z,83.47
2022-08-22T18:34:28.604Z,83.48
2022-08-22T18:37:03.771Z,84.80
2022-08-22T18:39:56.483Z,84.42
2022-08-22T18:42:52.826Z,83.60
2022-08-22T18:45:48.489Z,83.42
2022-08-22T18:48:29.594Z,84.11
2022-08-22T18:51:23.857Z,83.56
2022-08-22T18:53:51.093Z,83.21
2022-08-22T18:56:36.198Z,83.07
2022-08-22T18:59:14.892Z,83.69
2022-08-22T19:02:01.581Z,83.56
2022-08-22T19:05:01.754Z,83.80
2022-08-22T19:07:52.705Z,83.92
2022-08-22T19:10:34.589Z,83.89
2022-08-22T19:13:29.985Z,84.53
2022-08-22T19:16:06.584Z,84.96
2022-08-22T19:18:36.399Z,85.39
2022-08-22T19:21:42.575Z,85.90
2022-08-22T19:24:27.638Z,85.95
2022-08-22T19:27:18.455Z,86.54
2022-08-22T19:29:45.020Z,85.81
2022-08-22T19:32:46.403Z,87.11
2022-08-22T19:35:26.216Z,86.75
2022-08-22T19:38:00.379Z,86.73
2022-08-22T19:40:45.014Z,86.89
2022-08-22T19:43:30.009Z,86.80
2022-08-22T19:45:59.807Z,86.88
2022-08-22T19:48:31.532Z,87.17
2022-08-22T19:51:19.381Z,87.21
2022-08-22T19:54:01.043Z,88.02
2022-08-22T19:56:58.881Z,87.29
2022-08-22T19:59:59.445Z,86.89
2022-08-22T20:02:38.259Z,88.04
2022-08-22T20:05:12.493Z,87.28
2022-08-22T20:08:02.587Z,87.10
2022-08-22T20:10:55.924Z,86.50
2022-08-22T20:13:25.480Z,86.76
2022-08-22T20:16:25.068Z,86.55
2022-08-22T20:19:08.491Z,87.12
2022-08-22T20:21:41.001Z,86.93
2022-08-22T20:24:14.387Z,87.46
2022-08-22T20:27:10.018Z,87.81
2022-08-22T20:29:37.301Z,87.38
2022-08-22T20:32:06.173Z,87.69
2022-08-22T20:34:39.455Z,87.82
2022-08-22T20:37:29.595Z,87.58
2022-08-22T20:40:25.729Z,87.69
2022-08-22T20:43:00.788Z,88.08
2022-08-22T20:45:30.708Z,87.83
2022-08-22T20:47:57.714Z,87.81
2022-08-22T20:50:25.917Z,88.63
2022-08-22T20:53:19.350Z,89.28
2022-08-22T20:55:54.909Z,89.66
2022-08-22T20:58:25.478Z,89.98
2022-08-22T21:00:56.306Z,90.35
2022-08-22T21:03:43.619Z,89.67
2022-08-22T21:06:13.882Z,89.39
2022-08-22T21:08:42.068Z,89.46
2022-08-22T21:11:27.903Z,89.82
2022-08-22T21:13:55.526Z,89.77
2022-08-22T21:16:32.092Z,89.38
2022-08-22T21:19:01.766Z,89.29
2022-08-22T21:21:29.898Z,89.35
2022-08-22T21:24:06.210Z,89.48
2022-08-22T21:27:00.845Z,89.66
2022-08-22T21:29:32.715Z,89.87
2022-08-22T21:32:09.982Z,89.97
2022-08-22T21:34:48.832Z,89.93
2022-08-22T21:37:22.765Z,89.98
2022-08-22T21:40:10.594Z,89.91
2022-08-22T21:42:44.522Z,90.00
2022-08-22T21:45:25.627Z,89.92
2022-08-22T21:47:52.958Z,90.23
2022-08-22T21:50:25.107Z,90.38
2022-08-22T21:52:54.724Z,89.65
2022-08-22T21:55:30.587Z,89.93
2022-08-22T21:58:32.637Z,89.94
2022-08-22T22:01:31.379Z,90.24
2022-08-22T22:03:59.514Z,89.63
2022-08-22T22:06:27.025Z,90.20
2022-08-22T22:08:53.892Z,91.13
2022-08-22T22:11:20.487Z,91.41
2022-08-22T22:13:47.145Z,91.79
2022-08-22T22:16:18.834Z,91.96
2022-08-22T22:18:45.351Z,93.37
2022-08-22T22:21:12.010Z,93.34
2022-08-22T22:23:38.598Z,93.93
2022-08-22T22:26:06.521Z,95.35
2022-08-22T22:28:37.886Z,96.43
2022-08-22T22:31:05.615Z,97.88
2022-08-22T22:33:39.332Z,98.64
2022-08-22T22:36:20.686Z,99.45
2022-08-22T22:38:49.414Z,99.47
2022-08-22T22:41:19.234Z,99.84
2022-08-22T22:43:45.901Z,100.00
2022-08-22T22:46:12.478Z,100.00
2022-08-22T22:48:39.254Z,100.00
2022-08-22T22:51:12.326Z,100.00
2022-08-22T22:53:42.658Z,100.00
2022-08-22T22:56:13.282Z,100.00
2022-08-22T22:58:41.053Z,99.29
2022-08-22T23:01:16.578Z,99.54
2022-08-22T23:03:44.454Z,99.36
2022-08-22T23:06:13.059Z,99.64
2022-08-22T23:08:39.696Z,100.00
2022-08-22T23:11:15.404Z,100.00
2022-08-22T23:13:42.906Z,100.00
2022-08-22T23:16:12.766Z,100.00
2022-08-22T23:18:39.849Z,100.00
2022-08-22T23:21:10.866Z,100.00
2022-08-22T23:23:37.454Z,100.00
2022-08-22T23:26:03.978Z,100.00
2022-08-22T23:28:30.515Z,100.00
2022-08-22T23:30:57.138Z,100.00
2022-08-22T23:33:23.734Z,100.00
2022-08-22T23:35:51.169Z,100.00
2022-08-22T23:38:20.223Z,99.39
2022-08-22T23:40:48.515Z,98.12
2022-08-22T23:43:15.017Z,98.28
2022-08-22T23:45:41.538Z,98.69
2022-08-22T23:48:08.055Z,97.96
2022-08-22T23:50:34.939Z,98.38
2022-08-22T23:53:01.441Z,97.05
2022-08-22T23:55:27.945Z,96.92
2022-08-22T23:57:54.529Z,97.72
